Time;durP1;ratioP1;P1;durP2;ratioP2;P2;SDS_P1;SDS_P2;PMS_P1;PMS_P2;Temp;Humidity;BMP_temperature;BMP_pressure;BME280_temperature;BME280_humidity;BME280_pressure;Samples;Min_cycle;Max_cycle;Signal;HPM_P1;HPM_P2
2022/12/05 00:01:23;;;;;;;21.88;17.58;;;;;;;8.45;68.48;101921.94;4743669;29;119988;-79
2022/12/05 00:03:52;;;;;;;22.00;18.27;;;;;;;8.44;68.65;101923.13;4760735;29;119223;-79
2022/12/05 00:06:19;;;;;;;25.20;17.70;;;;;;;8.40;68.31;101922.38;4760834;29;120222;-79
2022/12/05 00:08:46;;;;;;;22.38;17.33;;;;;;;8.36;69.10;101927.13;4760193;29;121304;-79
2022/12/05 00:11:39;;;;;;;22.67;18.67;;;;;;;8.37;68.27;101941.56;4757933;29;119501;-79
2022/12/05 00:14:07;;;;;;;24.80;18.58;;;;;;;8.28;68.79;101920.13;4771397;29;119649;-79
2022/12/05 00:16:35;;;;;;;23.45;18.95;;;;;;;8.22;69.44;101927.97;4759981;29;119496;-79
2022/12/05 00:19:03;;;;;;;24.73;19.13;;;;;;;8.19;69.96;101928.00;4758643;29;119667;-79
2022/12/05 00:21:31;;;;;;;25.00;19.65;;;;;;;8.17;69.81;101930.38;4748513;29;119693;-79
2022/12/05 00:23:58;;;;;;;27.25;20.13;;;;;;;8.16;70.18;101928.81;4743556;29;119593;-79
2022/12/05 00:26:24;;;;;;;23.67;18.88;;;;;;;8.16;70.51;101935.06;4760703;29;119644;-79
2022/12/05 00:28:50;;;;;;;23.85;19.38;;;;;;;8.14;70.44;101925.72;4760141;29;119522;-79
2022/12/05 00:31:21;;;;;;;23.63;18.00;;;;;;;8.12;70.32;101928.06;4732460;29;119692;-79
2022/12/05 00:33:48;;;;;;;22.02;17.35;;;;;;;8.16;70.44;101928.81;4763581;29;119851;-79
2022/12/05 00:36:17;;;;;;;23.45;17.90;;;;;;;8.15;70.70;101922.59;4763508;29;119623;-79
2022/12/05 00:38:43;;;;;;;23.92;18.15;;;;;;;8.15;69.98;101916.34;4760174;29;119868;-79
2022/12/05 00:41:13;;;;;;;20.30;16.90;;;;;;;8.16;70.71;101913.19;4746617;29;120339;-79
2022/12/05 00:43:39;;;;;;;22.30;17.13;;;;;;;8.16;70.37;101917.88;4758592;29;119627;-79
2022/12/05 00:46:08;;;;;;;21.88;17.30;;;;;;;8.16;70.56;101905.00;4758753;29;119547;-79
2022/12/05 00:48:34;;;;;;;22.25;17.92;;;;;;;8.16;70.43;101907.72;4757799;29;120233;-79
2022/12/05 00:51:09;;;;;;;23.05;17.00;;;;;;;8.14;69.99;101906.59;4756824;29;119787;-79
2022/12/05 00:53:35;;;;;;;22.00;15.95;;;;;;;8.15;70.70;101900.72;4759472;29;119674;-79
2022/12/05 00:56:07;;;;;;;20.33;16.30;;;;;;;8.13;70.65;101908.53;4767639;29;120659;-79
2022/12/05 00:58:33;;;;;;;20.55;15.55;;;;;;;8.15;70.15;101905.41;4770794;29;119498;-79
2022/12/05 01:01:13;;;;;;;17.98;14.50;;;;;;;8.14;70.31;101898.38;4760489;29;120376;-79
2022/12/05 01:03:39;;;;;;;19.42;15.25;;;;;;;8.11;70.04;101904.66;4759489;29;119331;-79
2022/12/05 01:06:05;;;;;;;17.58;14.32;;;;;;;8.11;70.20;101883.56;4760141;29;119262;-79
2022/12/05 01:08:33;;;;;;;19.02;15.20;;;;;;;8.11;70.55;101891.00;4759210;29;120074;-79
2022/12/05 01:11:00;;;;;;;17.85;14.20;;;;;;;8.13;70.64;101891.38;4745548;29;119411;-79
2022/12/05 01:13:27;;;;;;;18.10;13.65;;;;;;;8.18;70.08;101899.13;4758801;29;119879;-79
2022/12/05 01:15:53;;;;;;;17.23;14.05;;;;;;;8.17;69.51;101903.03;4777002;29;119964;-80
2022/12/05 01:18:20;;;;;;;18.75;13.63;;;;;;;8.19;69.81;101906.91;4771193;29;119468;-79
2022/12/05 01:20:47;;;;;;;17.55;13.82;;;;;;;8.17;69.77;101908.50;4766662;29;119501;-79
2022/12/05 01:23:13;;;;;;;18.25;13.82;;;;;;;8.16;69.57;101891.34;4769517;29;119789;-79
2022/12/05 01:25:41;;;;;;;16.90;13.57;;;;;;;8.14;69.50;101890.97;4770020;29;119562;-79
2022/12/05 01:28:07;;;;;;;16.15;13.00;;;;;;;8.12;70.35;101900.75;4752579;29;119590;-79
2022/12/05 01:30:38;;;;;;;17.65;13.90;;;;;;;8.11;69.85;101904.66;4772713;29;119949;-79
2022/12/05 01:33:04;;;;;;;15.73;12.93;;;;;;;8.16;69.93;101906.97;4765515;29;120129;-79
2022/12/05 01:35:31;;;;;;;16.95;13.40;;;;;;;8.15;69.52;101902.66;4758600;29;120087;-79
2022/12/05 01:37:57;;;;;;;18.20;13.50;;;;;;;8.26;69.89;101917.00;4760104;29;119573;-79
2022/12/05 01:40:23;;;;;;;16.20;13.15;;;;;;;8.19;69.41;101904.19;4743503;29;119706;-79
2022/12/05 01:42:49;;;;;;;18.05;13.10;;;;;;;8.19;68.93;101901.47;4762914;29;119835;-79
2022/12/05 01:45:21;;;;;;;15.98;12.65;;;;;;;8.23;69.15;101909.63;4745349;29;119245;-79
2022/12/05 01:47:47;;;;;;;16.75;12.80;;;;;;;8.19;69.20;101909.66;4761758;29;119413;-79
2022/12/05 01:50:13;;;;;;;17.30;12.75;;;;;;;8.18;69.19;101902.63;4765668;29;119828;-79
2022/12/05 01:52:39;;;;;;;15.65;12.43;;;;;;;8.18;68.93;101915.53;4762146;29;119303;-79
2022/12/05 01:55:10;;;;;;;15.93;12.20;;;;;;;8.20;69.02;101913.16;4745852;29;119976;-79
2022/12/05 01:57:36;;;;;;;17.05;12.77;;;;;;;8.18;68.68;101921.00;4762603;29;119535;-79
2022/12/05 02:00:11;;;;;;;16.88;12.80;;;;;;;8.16;69.50;101909.69;4761683;29;119182;-79
2022/12/05 02:02:48;;;;;;;16.02;12.23;;;;;;;8.17;69.47;101903.03;4760148;29;119791;-79
2022/12/05 02:05:20;;;;;;;15.32;12.45;;;;;;;8.18;68.83;101908.09;4766175;29;120323;-79
2022/12/05 02:07:47;;;;;;;16.73;12.65;;;;;;;8.17;68.69;101892.88;4750520;29;119814;-79
2022/12/05 02:10:13;;;;;;;18.70;12.68;;;;;;;8.13;69.02;101891.38;4747649;29;119568;-79
2022/12/05 02:12:40;;;;;;;15.98;12.40;;;;;;;8.17;68.16;101884.69;4772745;29;119884;-79
2022/12/05 02:15:50;;;;;;;15.88;12.65;;;;;;;8.20;68.89;101888.56;4765351;29;120675;-79
2022/12/05 02:18:38;;;;;;;16.38;12.40;;;;;;;8.20;68.31;101904.97;4741113;29;119763;-79
2022/12/05 02:21:54;;;;;;;16.08;11.95;;;;;;;8.16;68.82;101890.56;4779189;29;120055;-79
2022/12/05 02:24:38;;;;;;;;;;;;;;;8.13;68.34;101878.47;4769346;29;119736;-79
2022/12/05 02:27:09;;;;;;;14.83;12.23;;;;;;;8.17;68.75;101883.91;4772870;29;119445;-79
2022/12/05 02:29:41;;;;;;;15.32;12.20;;;;;;;8.15;68.59;101884.31;4762034;29;119175;-79
2022/12/05 02:32:21;;;;;;;17.52;12.35;;;;;;;8.16;68.63;101885.09;4761744;29;119822;-79
2022/12/05 02:34:59;;;;;;;15.27;11.93;;;;;;;8.16;68.60;101880.41;4762222;29;119375;-79
2022/12/05 02:37:27;;;;;;;16.52;12.88;;;;;;;8.09;68.53;101875.00;4761754;29;119181;-79
2022/12/05 02:40:21;;;;;;;15.27;12.40;;;;;;;8.10;67.96;101890.22;4761602;29;119642;-79
2022/12/05 02:43:03;;;;;;;15.50;12.82;;;;;;;8.09;69.00;101875.00;4758146;29;119687;-79
2022/12/05 02:45:33;;;;;;;16.98;12.93;;;;;;;8.07;68.26;101882.84;4763577;29;119322;-79
2022/12/05 02:48:00;;;;;;;17.05;13.38;;;;;;;8.07;68.54;101871.13;4745428;29;119641;-79
2022/12/05 02:50:35;;;;;;;18.35;13.05;;;;;;;8.11;68.37;101880.06;4770658;29;120179;-79
2022/12/05 02:53:07;;;;;;;16.83;12.55;;;;;;;8.08;68.20;101883.59;4761273;29;119918;-79
2022/12/05 02:55:34;;;;;;;17.77;12.85;;;;;;;8.09;67.72;101874.22;4744402;29;119285;-79
2022/12/05 02:58:04;;;;;;;16.40;12.57;;;;;;;8.01;67.86;101868.03;4772758;29;119912;-79
2022/12/05 03:00:30;;;;;;;17.17;12.85;;;;;;;8.04;67.82;101855.50;4764656;29;119752;-79
2022/12/05 03:02:58;;;;;;;16.58;12.77;;;;;;;7.99;68.25;101860.25;4759683;29;119775;-79
2022/12/05 03:05:24;;;;;;;17.60;13.13;;;;;;;8.07;68.05;101879.31;4744692;29;120153;-79
2022/12/05 03:07:54;;;;;;;17.95;13.05;;;;;;;8.08;67.77;101872.69;4764771;29;119554;-79
2022/12/05 03:10:23;;;;;;;19.25;13.15;;;;;;;8.04;68.41;101867.22;4778782;29;119214;-79
2022/12/05 03:12:55;;;;;;;20.48;13.55;;;;;;;8.03;67.68;101849.28;4778390;29;119778;-79
2022/12/05 03:15:25;;;;;;;18.17;13.48;;;;;;;8.01;67.38;101844.22;4757983;29;119492;-79
2022/12/05 03:17:58;;;;;;;18.73;13.35;;;;;;;8.07;67.77;101843.81;4746508;29;120159;-79
2022/12/05 03:20:28;;;;;;;19.05;13.90;;;;;;;8.10;67.79;101846.50;4760712;29;119604;-79
2022/12/05 03:23:01;;;;;;;18.63;14.15;;;;;;;8.12;67.16;101857.78;4770607;29;119678;-79
2022/12/05 03:25:59;;;;;;;21.25;14.82;;;;;;;8.05;67.23;101849.66;4748504;29;119908;-79
2022/12/05 03:28:36;;;;;;;19.45;13.82;;;;;;;7.94;67.60;101849.75;4748191;29;120115;-79
2022/12/05 03:31:08;;;;;;;19.27;14.52;;;;;;;7.96;67.13;101852.84;4740337;29;120337;-79
2022/12/05 03:33:40;;;;;;;21.35;14.70;;;;;;;7.99;66.63;101862.97;4755612;29;122093;-79
2022/12/05 03:36:18;;;;;;;21.40;15.15;;;;;;;7.99;67.23;101837.59;4759216;29;120153;-79
2022/12/05 03:38:50;;;;;;;19.95;14.50;;;;;;;8.00;67.46;101856.31;4765240;29;119568;-79
2022/12/05 03:41:24;;;;;;;20.65;15.65;;;;;;;8.03;67.20;101841.06;4771653;29;119429;-79
2022/12/05 03:44:00;;;;;;;20.10;14.35;;;;;;;7.96;67.01;101855.59;4762461;29;119382;-79
2022/12/05 03:46:33;;;;;;;21.40;15.52;;;;;;;7.98;67.00;101844.25;4744435;29;119218;-79
2022/12/05 03:49:11;;;;;;;17.58;14.30;;;;;;;7.98;67.01;101842.28;4776076;29;119437;-79
2022/12/05 03:51:46;;;;;;;21.63;15.23;;;;;;;8.00;66.79;101839.16;4758781;29;119475;-79
2022/12/05 03:54:20;;;;;;;20.98;14.73;;;;;;;7.99;66.59;101843.84;4752863;29;119515;-79
2022/12/05 03:56:48;;;;;;;;;;;;;;;7.97;66.39;101842.69;4759441;29;119627;-79
2022/12/05 03:59:29;;;;;;;22.45;16.13;;;;;;;7.97;66.55;101829.03;4752293;29;119653;-79
2022/12/05 04:01:59;;;;;;;22.40;14.75;;;;;;;8.00;66.68;101831.72;4759343;29;119956;-79
2022/12/05 04:04:43;;;;;;;23.15;15.23;;;;;;;8.00;66.64;101844.63;4761105;29;119102;-79
2022/12/05 04:07:12;;;;;;;22.70;15.52;;;;;;;7.99;65.87;101838.38;4757392;29;120126;-79
2022/12/05 04:09:44;;;;;;;20.10;14.75;;;;;;;8.00;66.32;101836.41;4743746;29;119528;-79
2022/12/05 04:12:16;;;;;;;22.77;15.50;;;;;;;7.98;65.88;101834.09;4760117;29;119397;-79
2022/12/05 04:14:46;;;;;;;24.27;16.15;;;;;;;8.01;66.51;101830.56;4760098;29;119762;-79
2022/12/05 04:17:18;;;;;;;20.90;15.35;;;;;;;8.04;66.12;101836.38;4742085;29;119220;-79
2022/12/05 04:22:37;;;;;;;22.00;15.57;;;;;;;7.98;65.79;101836.06;4760019;29;119669;-79
2022/12/05 04:27:55;;;;;;;22.55;16.08;;;;;;;7.97;65.90;101834.50;4742418;29;121133;-79
2022/12/05 04:30:29;;;;;;;19.70;15.07;;;;;;;7.96;66.24;101835.69;4760748;29;119346;-79
2022/12/05 04:33:39;;;;;;;21.17;15.75;;;;;;;8.00;66.28;101830.94;4756417;29;119556;-79
2022/12/05 04:36:11;;;;;;;22.02;15.88;;;;;;;8.02;66.12;101832.09;4714066;29;121908;-79
2022/12/05 04:38:44;;;;;;;20.40;16.10;;;;;;;7.97;66.11;101823.56;4760036;29;119538;-79
2022/12/05 04:41:16;;;;;;;22.98;15.63;;;;;;;8.06;65.69;101832.09;4759074;29;119435;-79
2022/12/05 04:43:46;;;;;;;22.45;15.38;;;;;;;8.05;65.70;101830.53;4758980;29;119717;-79
2022/12/05 04:46:15;;;;;;;21.73;15.77;;;;;;;8.01;66.04;101825.09;4774154;29;119405;-79
2022/12/05 04:48:44;;;;;;;22.08;15.85;;;;;;;8.01;66.06;101824.31;4758352;29;121741;-79
2022/12/05 04:51:17;;;;;;;20.23;15.93;;;;;;;8.03;65.96;101830.16;4738878;29;119595;-79
2022/12/05 04:53:45;;;;;;;20.63;14.85;;;;;;;8.04;65.83;101834.44;4756205;29;120325;-79
2022/12/05 04:56:15;;;;;;;21.17;15.73;;;;;;;8.07;65.61;101825.44;4765306;29;120039;-79
2022/12/05 04:58:41;;;;;;;22.25;16.17;;;;;;;8.06;65.82;101825.84;4757340;29;119917;-79
2022/12/05 05:01:21;;;;;;;21.92;16.05;;;;;;;8.08;65.79;101826.22;4766766;29;119997;-79
2022/12/05 05:04:27;;;;;;;23.70;16.05;;;;;;;8.12;66.04;101835.16;4764820;29;119530;-79
2022/12/05 05:06:52;;;;;;;20.30;15.25;;;;;;;8.02;66.09;101832.09;4758618;29;119374;-79
2022/12/05 05:09:18;;;;;;;22.05;15.88;;;;;;;8.00;65.66;101830.94;4762528;29;120006;-79
2022/12/05 05:11:44;;;;;;;24.50;16.77;;;;;;;7.99;66.10;101835.66;4758930;29;119241;-79
2022/12/05 05:14:10;;;;;;;23.77;16.38;;;;;;;7.99;66.23;101854.78;4750435;29;119207;-79
2022/12/05 05:16:39;;;;;;;21.77;16.88;;;;;;;7.98;66.13;101842.28;4764057;29;119905;-79
2022/12/05 05:19:06;;;;;;;22.10;15.68;;;;;;;7.99;66.72;101843.84;4758600;29;119420;-79
2022/12/05 05:21:34;;;;;;;21.80;16.13;;;;;;;7.98;66.90;101836.81;4759628;29;119626;-79
2022/12/05 05:24:01;;;;;;;23.98;16.80;;;;;;;8.00;66.31;101841.88;4746073;29;120159;-79
2022/12/05 05:26:28;;;;;;;23.10;16.60;;;;;;;7.98;66.67;101839.56;4761432;29;121173;-79
2022/12/05 05:28:56;;;;;;;22.75;16.77;;;;;;;8.01;66.84;101836.00;4778435;29;119705;-79
2022/12/05 05:31:21;;;;;;;22.75;16.58;;;;;;;7.96;66.87;101836.47;4759513;29;120458;-79
2022/12/05 05:33:48;;;;;;;24.50;17.00;;;;;;;8.04;66.60;101844.59;4754487;29;119256;-79
2022/12/05 05:36:15;;;;;;;23.92;16.92;;;;;;;7.99;66.79;101838.38;4743154;29;121716;-79
2022/12/05 05:38:43;;;;;;;25.23;17.00;;;;;;;8.02;67.32;101831.31;4745853;29;119327;-79
2022/12/05 05:41:13;;;;;;;24.95;16.63;;;;;;;8.05;66.72;101829.75;4763873;29;118800;-79
2022/12/05 05:43:40;;;;;;;22.83;16.02;;;;;;;8.04;66.55;101839.91;4763222;29;119523;-79
2022/12/05 05:46:06;;;;;;;24.25;16.90;;;;;;;8.04;66.40;101834.44;4779084;29;119468;-79
2022/12/05 05:48:32;;;;;;;24.10;16.92;;;;;;;8.01;66.98;101837.97;4754248;29;119215;-79
2022/12/05 05:50:59;;;;;;;22.48;16.90;;;;;;;8.04;67.31;101834.44;4770304;29;119285;-79
2022/12/05 05:53:24;;;;;;;26.33;17.55;;;;;;;8.08;67.47;101837.16;4765848;29;119435;-79
2022/12/05 05:55:50;;;;;;;24.15;16.63;;;;;;;8.03;67.24;101827.41;4755334;29;119890;-79
2022/12/05 05:58:16;;;;;;;23.02;16.35;;;;;;;8.08;67.50;101839.88;4762173;29;120289;-79
2022/12/05 06:00:41;;;;;;;21.58;15.77;;;;;;;8.10;67.76;101837.53;4759626;29;119334;-79
2022/12/05 06:03:07;;;;;;;26.30;16.80;;;;;;;8.06;67.67;101842.25;4766141;29;119915;-79
2022/12/05 06:05:33;;;;;;;25.75;16.75;;;;;;;8.02;67.09;101821.16;4746245;29;119354;-79
2022/12/05 06:07:59;;;;;;;24.25;16.80;;;;;;;8.07;67.37;101836.38;4730779;29;122364;-79
2022/12/05 06:10:24;;;;;;;25.50;16.92;;;;;;;8.09;67.76;101844.16;4772693;29;119292;-79
2022/12/05 06:12:50;;;;;;;26.30;17.27;;;;;;;8.09;67.59;101835.97;4749534;29;119872;-79
2022/12/05 06:15:16;;;;;;;23.85;16.92;;;;;;;8.10;67.64;101834.78;4773240;29;120979;-79
2022/12/05 06:17:42;;;;;;;25.48;17.05;;;;;;;8.05;68.12;101829.75;4737719;29;119830;-79
2022/12/05 06:20:08;;;;;;;27.45;17.42;;;;;;;8.08;67.64;101820.75;4755914;29;120118;-79
2022/12/05 06:22:34;;;;;;;24.60;17.70;;;;;;;8.09;67.65;101825.03;4742190;29;119392;-79
2022/12/05 06:24:59;;;;;;;27.70;17.08;;;;;;;8.04;67.80;101817.25;4760693;29;119470;-79
2022/12/05 06:27:29;;;;;;;26.13;17.70;;;;;;;8.10;67.91;101832.06;4758012;29;119584;-79
2022/12/05 06:29:54;;;;;;;25.80;16.92;;;;;;;8.04;68.02;101817.25;4757883;29;119171;-79
2022/12/05 06:32:20;;;;;;;25.90;17.35;;;;;;;8.08;68.20;101815.28;4749022;29;119570;-79
2022/12/05 06:34:46;;;;;;;24.02;16.90;;;;;;;8.09;67.85;101814.09;4760087;29;121305;-79
2022/12/05 06:37:11;;;;;;;21.17;16.08;;;;;;;8.11;68.04;101819.94;4765354;29;121451;-79
2022/12/05 06:39:37;;;;;;;24.10;16.20;;;;;;;8.08;68.29;101821.53;4773788;29;119521;-79
2022/12/05 06:42:03;;;;;;;22.38;15.88;;;;;;;8.11;68.27;101830.88;4768438;29;119270;-79
2022/12/05 06:44:29;;;;;;;25.45;16.30;;;;;;;8.07;67.91;101828.19;4774176;29;119521;-79
2022/12/05 06:46:55;;;;;;;24.63;16.10;;;;;;;8.05;67.84;101835.22;4761239;29;119377;-79
2022/12/05 06:49:24;;;;;;;22.02;16.10;;;;;;;8.09;68.15;101835.97;4772086;29;120269;-79
2022/12/05 06:51:52;;;;;;;26.02;16.35;;;;;;;8.07;68.06;101821.94;4761612;29;120203;-79
2022/12/05 06:54:18;;;;;;;23.13;15.90;;;;;;;8.08;68.30;101839.88;4748406;29;119439;-79
2022/12/05 06:56:44;;;;;;;22.20;15.48;;;;;;;8.07;68.46;101827.41;4745034;29;119168;-79
2022/12/05 06:59:09;;;;;;;25.88;15.65;;;;;;;8.05;68.40;101816.09;4752868;29;119188;-79
2022/12/05 07:01:39;;;;;;;21.60;15.43;;;;;;;8.06;68.97;101836.78;4759679;29;120134;-79
2022/12/05 07:04:16;;;;;;;28.48;16.08;;;;;;;8.02;68.70;101845.75;4761249;29;119932;-79
2022/12/05 07:06:44;;;;;;;24.38;15.93;;;;;;;7.98;68.96;101836.81;4761824;29;119817;-79
2022/12/05 07:09:10;;;;;;;26.10;16.95;;;;;;;8.03;68.87;101832.88;4764241;29;119620;-79
2022/12/05 07:11:37;;;;;;;25.42;16.23;;;;;;;8.01;68.79;101841.47;4761704;29;121258;-79
2022/12/05 07:14:04;;;;;;;22.40;15.80;;;;;;;7.97;68.99;101829.81;4757433;29;119457;-79
2022/12/05 07:16:30;;;;;;;26.35;16.90;;;;;;;7.97;69.74;101829.81;4758146;29;119634;-79
2022/12/05 07:18:56;;;;;;;25.15;15.63;;;;;;;8.02;69.45;101834.84;4744927;29;119780;-80
2022/12/05 07:21:23;;;;;;;22.30;15.73;;;;;;;8.04;69.45;101831.69;4760620;29;120148;-79
2022/12/05 07:23:49;;;;;;;24.58;15.82;;;;;;;8.04;69.73;101836.38;4772805;29;120319;-79
2022/12/05 07:26:18;;;;;;;21.35;15.65;;;;;;;8.06;69.82;101837.56;4774797;29;119656;-79
2022/12/05 07:28:44;;;;;;;22.08;15.18;;;;;;;8.02;70.02;101826.63;4761015;29;119466;-79
2022/12/05 07:31:12;;;;;;;25.33;15.48;;;;;;;7.99;69.93;101835.66;4767264;29;119121;-79
2022/12/05 07:33:38;;;;;;;23.33;14.82;;;;;;;8.05;70.22;101835.22;4757746;29;119976;-79
2022/12/05 07:36:08;;;;;;;20.35;14.38;;;;;;;8.07;70.40;101839.09;4759185;29;119872;-79
2022/12/05 07:38:34;;;;;;;22.17;13.90;;;;;;;8.06;69.83;101842.25;4765092;29;119477;-79
2022/12/05 07:41:07;;;;;;;18.63;14.00;;;;;;;8.07;70.06;101841.06;4759266;29;119302;-79
2022/12/05 07:43:33;;;;;;;21.70;13.88;;;;;;;8.01;70.17;101827.81;4760645;29;119290;-79
2022/12/05 07:46:04;;;;;;;24.58;13.88;;;;;;;8.04;70.37;101828.19;4771971;29;119707;-79
2022/12/05 07:48:31;;;;;;;22.27;14.82;;;;;;;7.99;70.36;101827.44;4744484;29;120300;-79
2022/12/05 07:51:01;;;;;;;20.17;14.32;;;;;;;8.02;70.46;101832.09;4745137;29;119295;-79
2022/12/05 07:53:28;;;;;;;25.50;14.15;;;;;;;7.98;70.78;101844.25;4759620;29;119190;-79
2022/12/05 07:55:54;;;;;;;21.08;14.57;;;;;;;8.08;70.45;101840.66;4741369;29;121919;-79
2022/12/05 07:58:20;;;;;;;22.55;14.18;;;;;;;8.06;70.21;101832.09;4757929;29;119260;-80
2022/12/05 08:00:46;;;;;;;21.92;14.00;;;;;;;8.05;70.82;101827.03;4763568;29;120614;-79
2022/12/05 08:03:11;;;;;;;19.05;13.27;;;;;;;8.05;70.66;101829.75;4760152;29;119762;-79
2022/12/05 08:05:37;;;;;;;20.70;13.05;;;;;;;8.06;70.91;101831.31;4755662;29;119304;-79
2022/12/05 08:08:03;;;;;;;23.27;14.65;;;;;;;8.10;70.58;101834.78;4758759;29;122092;-79
2022/12/05 08:10:29;;;;;;;19.70;13.40;;;;;;;8.11;70.77;101833.59;4761054;29;119773;-79
2022/12/05 08:12:55;;;;;;;19.95;13.40;;;;;;;8.11;70.90;101828.91;4752297;29;120298;-80
2022/12/05 08:15:21;;;;;;;21.75;13.48;;;;;;;8.04;70.36;101823.50;4762169;29;119794;-79
2022/12/05 08:17:46;;;;;;;21.90;14.18;;;;;;;8.06;71.02;101834.06;4752888;29;119814;-79
2022/12/05 08:20:12;;;;;;;21.73;14.40;;;;;;;8.01;70.83;101813.38;4771716;29;119973;-79
2022/12/05 08:22:38;;;;;;;22.17;14.23;;;;;;;8.00;70.67;101807.13;4774135;29;120580;-79
2022/12/05 08:25:04;;;;;;;22.38;15.05;;;;;;;8.02;71.37;101821.16;4764235;29;119261;-79
2022/12/05 08:27:30;;;;;;;24.08;13.85;;;;;;;8.00;71.28;101812.59;4768011;29;120069;-79
2022/12/05 08:29:56;;;;;;;24.10;14.32;;;;;;;8.04;71.22;101844.59;4755864;29;119833;-79
2022/12/05 08:32:21;;;;;;;22.30;14.50;;;;;;;8.01;71.64;101810.66;4750487;29;121007;-80
2022/12/05 08:34:47;;;;;;;20.45;14.57;;;;;;;8.00;71.38;101820.81;4766613;29;119946;-79
2022/12/05 08:37:13;;;;;;;23.65;15.07;;;;;;;7.91;71.41;101797.88;4766899;29;119743;-79
2022/12/05 08:39:39;;;;;;;23.65;15.15;;;;;;;7.98;71.38;101817.69;4766929;29;119475;-79
2022/12/05 08:42:04;;;;;;;22.45;14.68;;;;;;;7.93;71.65;101820.88;4756835;29;122307;-79
2022/12/05 08:44:30;;;;;;;25.05;14.30;;;;;;;7.94;71.83;101808.75;4770314;29;119749;-79
2022/12/05 08:46:56;;;;;;;21.42;14.68;;;;;;;8.04;71.72;101818.03;4755761;29;122085;-79
2022/12/05 08:49:22;;;;;;;22.50;15.13;;;;;;;8.01;71.67;101814.16;4769205;29;119790;-79
2022/12/05 08:51:47;;;;;;;24.75;16.20;;;;;;;7.98;71.71;101820.44;4763607;29;119442;-79
2022/12/05 08:54:14;;;;;;;25.30;17.13;;;;;;;8.04;71.85;101833.66;4769345;29;120194;-79
2022/12/05 08:56:39;;;;;;;28.13;17.30;;;;;;;8.04;71.55;101823.50;4753718;29;119300;-79
2022/12/05 08:59:05;;;;;;;25.85;16.88;;;;;;;7.98;71.72;101825.91;4771472;29;119395;-79
2022/12/05 09:01:32;;;;;;;26.75;16.90;;;;;;;7.99;71.65;101826.66;4747564;29;119461;-79
2022/12/05 09:04:00;;;;;;;25.52;16.63;;;;;;;7.95;72.28;101826.72;4775500;29;119440;-79
2022/12/05 09:06:27;;;;;;;26.33;17.05;;;;;;;7.98;71.82;101825.91;4773349;29;120421;-79
2022/12/05 09:08:58;;;;;;;27.50;17.48;;;;;;;8.01;71.66;101827.03;4771917;29;119648;-79
2022/12/05 09:11:29;;;;;;;28.15;17.08;;;;;;;8.08;71.60;101828.97;4775713;29;120713;-79
2022/12/05 09:13:57;;;;;;;28.02;17.52;;;;;;;8.09;71.54;101833.25;4768566;29;120410;-79
2022/12/05 09:16:29;;;;;;;30.27;17.65;;;;;;;8.10;71.98;101826.59;4746030;29;119976;-79
2022/12/05 09:18:55;;;;;;;28.60;17.10;;;;;;;8.08;71.50;101835.19;4758191;29;119431;-79
2022/12/05 09:21:24;;;;;;;26.65;17.33;;;;;;;8.09;71.30;101831.28;4753751;29;119802;-79
2022/12/05 09:23:50;;;;;;;26.25;17.00;;;;;;;8.06;71.66;101817.66;4772849;29;119768;-79
2022/12/05 09:26:19;;;;;;;28.35;16.70;;;;;;;8.13;71.44;101814.84;4759272;29;119746;-79
2022/12/05 09:28:45;;;;;;;23.90;15.85;;;;;;;8.14;71.28;101816.41;4762504;29;119623;-79
2022/12/05 09:31:20;;;;;;;22.92;15.07;;;;;;;8.20;70.59;101831.16;4775509;29;119740;-79
2022/12/05 09:33:47;;;;;;;25.90;15.68;;;;;;;8.18;70.93;101815.16;4769005;29;119376;-79
2022/12/05 09:36:22;;;;;;;21.77;15.32;;;;;;;8.21;71.11;101824.50;4771001;29;119517;-79
2022/12/05 09:38:49;;;;;;;18.42;13.70;;;;;;;8.22;70.53;101828.78;4769451;29;119270;-79
2022/12/05 09:44:33;;;;;;;18.38;13.30;;;;;;;8.12;70.23;101837.88;4741309;29;119480;-79
2022/12/05 09:47:08;;;;;;;25.33;13.82;;;;;;;8.13;69.87;101831.25;4760415;29;121804;-79
2022/12/05 09:49:39;;;;;;;17.92;12.52;;;;;;;8.13;69.98;101825.78;4765669;29;119756;-79
2022/12/05 09:52:05;;;;;;;18.13;12.70;;;;;;;8.21;69.97;101821.78;4773858;29;119441;-80
2022/12/05 09:54:31;;;;;;;18.85;12.43;;;;;;;8.27;69.76;101820.94;4769793;29;120716;-79
2022/12/05 09:56:58;;;;;;;15.80;11.63;;;;;;;8.32;69.97;101827.94;4755929;29;119613;-79
2022/12/05 09:59:24;;;;;;;17.75;11.70;;;;;;;8.36;69.51;101825.97;4768508;29;119511;-79
2022/12/05 10:02:16;;;;;;;17.08;11.65;;;;;;;8.35;69.60;101809.97;4762042;29;119939;-79
2022/12/05 10:04:54;;;;;;;15.18;10.52;;;;;;;8.41;69.02;101822.00;4768661;29;119801;-79
2022/12/05 10:07:38;;;;;;;14.68;10.88;;;;;;;8.39;69.08;101825.13;4767948;29;119862;-79
2022/12/05 10:10:07;;;;;;;15.68;10.98;;;;;;;8.35;68.86;101818.16;4769985;29;119671;-79
2022/12/05 10:12:51;;;;;;;16.80;11.20;;;;;;;8.35;68.96;101809.97;4775420;29;119891;-79
2022/12/05 10:15:36;;;;;;;13.35;10.75;;;;;;;8.34;68.97;101820.13;4767653;29;120167;-79
2022/12/05 10:18:08;;;;;;;;;;;;;;;8.32;68.28;101808.78;4759816;29;120383;-79
2022/12/05 10:20:47;;;;;;;15.40;10.77;;;;;;;8.27;68.81;101804.53;4770604;29;119322;-80
2022/12/05 10:23:21;;;;;;;17.20;10.82;;;;;;;8.26;68.64;101796.72;4767578;29;119532;-79
2022/12/05 10:25:54;;;;;;;14.52;9.90;;;;;;;8.31;68.93;101799.03;4768746;29;119508;-79
2022/12/05 10:28:35;;;;;;;15.10;10.52;;;;;;;8.29;68.50;101785.00;4755671;29;121234;-79
2022/12/05 10:31:06;;;;;;;13.23;9.90;;;;;;;8.32;68.04;101786.94;4767187;29;120447;-79
2022/12/05 10:33:38;;;;;;;13.00;10.00;;;;;;;8.38;68.47;101798.97;4767195;29;119740;-79
2022/12/05 10:36:12;;;;;;;14.75;9.98;;;;;;;8.36;68.26;101795.88;4773613;29;119720;-79
2022/12/05 10:38:38;;;;;;;15.05;10.27;;;;;;;8.33;68.38;101785.75;4770841;29;119668;-79
2022/12/05 10:41:09;;;;;;;13.98;10.10;;;;;;;8.34;68.10;101776.38;4771481;29;119405;-79
2022/12/05 10:43:39;;;;;;;13.32;9.55;;;;;;;8.28;68.22;101775.22;4767339;29;120522;-79
2022/12/05 10:46:05;;;;;;;13.70;9.25;;;;;;;8.30;68.10;101789.28;4768872;29;119399;-79
2022/12/05 10:48:34;;;;;;;12.82;9.27;;;;;;;8.32;68.61;101781.47;4768896;29;120954;-79
2022/12/05 10:51:00;;;;;;;12.15;9.40;;;;;;;8.30;68.46;101765.47;4769527;29;119483;-79
2022/12/05 10:53:27;;;;;;;14.57;9.88;;;;;;;8.38;68.31;101774.38;4770011;29;119911;-79
2022/12/05 10:55:53;;;;;;;14.18;9.98;;;;;;;8.36;68.21;101757.63;4774685;29;121849;-79
2022/12/05 10:58:26;;;;;;;14.23;10.15;;;;;;;8.44;68.37;101769.22;4769014;29;119636;-79
2022/12/05 11:00:55;;;;;;;14.48;9.77;;;;;;;8.49;67.69;101769.53;4756594;29;119260;-79
2022/12/05 11:03:33;;;;;;;12.50;9.30;;;;;;;8.51;67.60;101764.44;4770497;29;120902;-79
2022/12/05 11:06:21;;;;;;;13.60;9.43;;;;;;;8.48;67.68;101748.84;4761059;29;120236;-79
2022/12/05 11:08:56;;;;;;;13.27;9.27;;;;;;;8.47;68.04;101762.94;4764699;29;119758;-79
2022/12/05 11:11:27;;;;;;;14.52;9.57;;;;;;;8.46;67.86;101750.44;4754780;29;119808;-79
2022/12/05 11:14:17;;;;;;;14.23;9.20;;;;;;;8.41;67.57;101757.16;4771146;29;119846;-79
2022/12/05 11:16:54;;;;;;;13.07;8.60;;;;;;;8.42;67.94;101749.72;4769621;29;119319;-79
2022/12/05 11:19:20;;;;;;;15.18;9.40;;;;;;;8.46;67.93;101751.22;4775454;29;120003;-79
2022/12/05 11:21:49;;;;;;;14.10;10.15;;;;;;;8.48;67.69;101748.84;4769520;29;119916;-79
2022/12/05 11:24:27;;;;;;;14.43;10.07;;;;;;;8.49;67.72;101735.97;4768451;29;119463;-81
2022/12/05 11:26:54;;;;;;;12.23;8.98;;;;;;;8.47;67.33;101739.09;4756251;29;119961;-78
2022/12/05 11:29:33;;;;;;;13.75;9.32;;;;;;;8.53;68.09;101762.09;4772101;29;119847;-79
2022/12/05 11:31:59;;;;;;;14.18;9.38;;;;;;;8.48;67.86;101731.69;4773115;29;119786;-79
2022/12/05 11:34:32;;;;;;;12.48;9.15;;;;;;;8.56;67.47;101735.88;4765427;29;119857;-78